createdAt,value
2017-10-27T00:01:25.549Z,9.09
2017-10-27T00:03:51.917Z,9.03
2017-10-27T00:06:18.419Z,8.97
2017-10-27T00:08:44.845Z,9.04
2017-10-27T00:11:12.035Z,9.02
2017-10-27T00:13:38.431Z,9.09
2017-10-27T00:16:04.865Z,9.17
2017-10-27T00:18:31.301Z,9.19
2017-10-27T00:20:57.746Z,9.16
2017-10-27T00:23:24.171Z,9.03
2017-10-27T00:25:50.605Z,8.83
2017-10-27T00:28:17.756Z,8.81
2017-10-27T00:30:44.200Z,8.85
2017-10-27T00:33:10.626Z,8.86
2017-10-27T00:35:37.172Z,8.91
2017-10-27T00:38:03.572Z,8.94
2017-10-27T00:40:29.967Z,8.88
2017-10-27T00:42:56.365Z,8.79
2017-10-27T00:45:23.626Z,8.81
2017-10-27T00:47:50.024Z,8.79
2017-10-27T00:50:16.491Z,8.61
2017-10-27T00:52:42.832Z,8.57
2017-10-27T00:55:09.256Z,8.48
2017-10-27T00:57:35.690Z,8.47
2017-10-27T01:00:02.133Z,8.51
2017-10-27T01:02:29.390Z,8.49
2017-10-27T01:04:56.020Z,8.49
2017-10-27T01:07:22.944Z,8.43
2017-10-27T01:09:49.411Z,8.46
2017-10-27T01:12:15.837Z,8.50
2017-10-27T01:14:42.278Z,8.49
2017-10-27T01:17:08.712Z,8.50
2017-10-27T01:19:35.957Z,8.48
2017-10-27T01:22:02.278Z,8.48
2017-10-27T01:24:28.724Z,8.54
2017-10-27T01:26:55.168Z,8.56
2017-10-27T01:29:21.531Z,8.61
2017-10-27T01:31:48.038Z,8.62
2017-10-27T01:34:14.432Z,8.48
2017-10-27T01:36:41.726Z,8.42
2017-10-27T01:39:08.153Z,8.51
2017-10-27T01:41:34.587Z,8.44
2017-10-27T01:44:00.920Z,8.47
2017-10-27T01:46:27.354Z,8.52
2017-10-27T01:48:53.797Z,8.55
2017-10-27T01:51:20.224Z,8.54
2017-10-27T01:53:47.453Z,8.41
2017-10-27T01:56:13.920Z,8.30
2017-10-27T01:58:40.459Z,8.23
2017-10-27T02:01:06.891Z,8.25
2017-10-27T02:03:33.255Z,8.30
2017-10-27T02:05:59.762Z,8.22
2017-10-27T02:08:26.121Z,8.24
2017-10-27T02:10:53.343Z,8.32
2017-10-27T02:13:19.776Z,8.31
2017-10-27T02:15:46.208Z,8.29
2017-10-27T02:18:12.643Z,8.27
2017-10-27T02:20:38.976Z,8.27
2017-10-27T02:23:05.348Z,8.18
2017-10-27T02:25:31.752Z,8.17
2017-10-27T02:27:59.006Z,8.15
2017-10-27T02:30:25.441Z,8.09
2017-10-27T02:32:51.867Z,8.13
2017-10-27T02:35:18.199Z,8.19
2017-10-27T02:37:44.633Z,8.17
2017-10-27T02:40:11.003Z,8.16
2017-10-27T02:42:37.511Z,8.18
2017-10-27T02:45:04.622Z,8.26
2017-10-27T02:47:31.027Z,8.27
2017-10-27T02:49:57.420Z,8.14
2017-10-27T02:52:23.856Z,8.17
2017-10-27T02:54:50.393Z,8.18
2017-10-27T02:57:16.836Z,8.05
2017-10-27T02:59:43.267Z,8.07
2017-10-27T03:02:10.455Z,8.01
2017-10-27T03:04:36.848Z,7.96
2017-10-27T03:07:03.291Z,7.93
2017-10-27T03:09:29.694Z,7.86
2017-10-27T03:11:56.161Z,7.83
2017-10-27T03:14:22.588Z,7.76
2017-10-27T03:16:49.025Z,7.62
2017-10-27T03:19:16.285Z,7.61
2017-10-27T03:21:42.648Z,7.53
2017-10-27T03:24:09.158Z,7.51
2017-10-27T03:26:35.580Z,7.47
2017-10-27T03:29:02.022Z,7.47
2017-10-27T03:31:28.419Z,7.48
2017-10-27T03:33:54.884Z,7.49
2017-10-27T03:36:22.036Z,7.44
2017-10-27T03:38:48.633Z,7.42
2017-10-27T03:41:15.048Z,7.40
2017-10-27T03:43:41.441Z,7.36
2017-10-27T03:46:07.877Z,7.33
2017-10-27T03:48:34.391Z,7.41
2017-10-27T03:51:00.868Z,7.39
2017-10-27T03:53:28.009Z,7.39
2017-10-27T03:55:54.435Z,7.42
2017-10-27T03:58:20.879Z,7.46
2017-10-27T04:00:47.201Z,7.48
2017-10-27T04:03:13.535Z,7.49
2017-10-27T04:05:39.979Z,7.38
2017-10-27T04:08:06.414Z,7.43
2017-10-27T04:10:33.556Z,7.39
2017-10-27T04:12:59.927Z,7.37
2017-10-27T04:15:26.535Z,7.32
2017-10-27T04:17:52.956Z,7.36
2017-10-27T04:20:19.396Z,7.38
2017-10-27T04:22:45.808Z,7.41
2017-10-27T04:25:12.266Z,7.35
2017-10-27T04:27:39.521Z,7.28
2017-10-27T04:30:05.955Z,7.23
2017-10-27T04:32:32.398Z,7.19
2017-10-27T04:34:58.818Z,7.17
2017-10-27T04:37:25.260Z,7.12
2017-10-27T04:39:51.696Z,7.02
2017-10-27T04:42:18.098Z,6.98
2017-10-27T04:44:45.328Z,6.78
2017-10-27T04:47:12.432Z,6.65
2017-10-27T04:49:38.875Z,6.51
2017-10-27T04:52:05.804Z,6.68
2017-10-27T04:54:32.280Z,6.71
2017-10-27T04:56:58.683Z,6.79
2017-10-27T04:59:25.073Z,6.84
2017-10-27T05:01:52.277Z,6.93
2017-10-27T05:04:19.737Z,7.09
2017-10-27T05:06:46.610Z,7.21
2017-10-27T05:09:13.323Z,7.26
2017-10-27T05:11:39.709Z,7.37
2017-10-27T05:14:06.127Z,7.42
2017-10-27T05:16:32.893Z,7.39
2017-10-27T05:18:59.363Z,7.46
2017-10-27T05:21:25.805Z,7.56
2017-10-27T05:23:52.257Z,7.68
2017-10-27T05:26:18.664Z,7.77
2017-10-27T05:28:45.036Z,7.72
2017-10-27T05:31:11.547Z,7.94
2017-10-27T05:33:38.082Z,8.00
2017-10-27T05:36:04.516Z,8.13
2017-10-27T05:38:31.250Z,8.17
2017-10-27T05:40:57.619Z,8.26
2017-10-27T05:43:24.125Z,8.33
2017-10-27T05:45:50.554Z,8.49
2017-10-27T05:48:16.995Z,8.67
2017-10-27T05:50:43.523Z,8.83
2017-10-27T05:53:09.965Z,8.95
2017-10-27T05:55:36.495Z,9.03
2017-10-27T05:58:03.039Z,9.08
2017-10-27T06:00:30.408Z,9.23
2017-10-27T06:02:56.825Z,9.33
2017-10-27T06:05:23.465Z,9.46
2017-10-27T06:07:49.898Z,9.56
2017-10-27T06:10:16.283Z,9.65
2017-10-27T06:12:42.807Z,9.71
2017-10-27T06:15:09.296Z,9.78
2017-10-27T06:17:35.983Z,9.88
2017-10-27T06:20:02.453Z,10.01
2017-10-27T06:22:28.944Z,10.13
2017-10-27T06:24:55.541Z,10.24
2017-10-27T06:27:21.957Z,10.38
2017-10-27T06:29:48.433Z,10.46
2017-10-27T06:32:15.042Z,10.63
2017-10-27T06:34:41.704Z,10.78
2017-10-27T06:37:08.140Z,10.95
2017-10-27T06:39:35.321Z,11.09
2017-10-27T06:42:02.035Z,11.18
2017-10-27T06:44:28.445Z,11.28
2017-10-27T06:46:55.252Z,11.32
2017-10-27T06:49:21.614Z,11.38
2017-10-27T06:51:48.087Z,11.43
2017-10-27T06:54:14.506Z,11.53
2017-10-27T06:56:41.458Z,11.62
2017-10-27T06:59:07.808Z,11.68
2017-10-27T07:01:34.378Z,11.79
2017-10-27T07:04:01.083Z,12.00
2017-10-27T07:06:27.916Z,12.19
2017-10-27T07:08:54.352Z,12.35
2017-10-27T07:11:20.998Z,12.50
2017-10-27T07:13:47.424Z,12.68
2017-10-27T07:16:13.961Z,12.86
2017-10-27T07:18:40.425Z,12.97
2017-10-27T07:21:07.012Z,12.95
2017-10-27T07:23:33.479Z,12.96
2017-10-27T07:26:00.007Z,12.93
2017-10-27T07:28:26.451Z,13.01
2017-10-27T07:30:52.991Z,13.20
2017-10-27T07:33:19.696Z,13.41
2017-10-27T07:35:46.267Z,13.59
2017-10-27T07:38:12.702Z,13.77
2017-10-27T07:40:39.683Z,13.89
2017-10-27T07:43:06.185Z,13.96
2017-10-27T07:45:32.898Z,13.95
2017-10-27T07:47:59.354Z,13.84
2017-10-27T07:50:26.208Z,13.74
2017-10-27T07:52:53.042Z,13.65
2017-10-27T07:55:19.515Z,13.70
2017-10-27T07:57:46.325Z,13.90
2017-10-27T08:00:13.301Z,14.11
2017-10-27T08:02:40.520Z,14.31
2017-10-27T08:05:07.118Z,14.41
2017-10-27T08:07:34.347Z,14.56
2017-10-27T08:10:00.747Z,14.73
2017-10-27T08:12:27.600Z,14.93
2017-10-27T08:14:54.099Z,15.03
2017-10-27T08:17:20.871Z,15.11
2017-10-27T08:19:47.922Z,15.22
2017-10-27T08:22:14.457Z,15.35
2017-10-27T08:24:40.892Z,15.52
2017-10-27T08:27:07.257Z,15.60
2017-10-27T08:29:33.770Z,15.69
2017-10-27T08:32:00.272Z,15.84
2017-10-27T08:34:27.145Z,15.94
2017-10-27T08:36:53.582Z,16.09
2017-10-27T08:39:20.206Z,16.21
2017-10-27T08:41:47.746Z,16.34
2017-10-27T08:44:14.314Z,16.48
2017-10-27T08:46:40.749Z,16.57
2017-10-27T08:49:07.744Z,16.69
2017-10-27T08:51:34.139Z,16.84
2017-10-27T08:54:00.566Z,16.93
2017-10-27T08:56:27.993Z,17.07
2017-10-27T08:58:54.467Z,17.19
2017-10-27T09:01:20.979Z,17.34
2017-10-27T09:03:47.412Z,17.45
2017-10-27T09:06:14.173Z,17.53
2017-10-27T09:08:40.607Z,17.70
2017-10-27T09:11:07.114Z,17.84
2017-10-27T09:13:34.296Z,17.93
2017-10-27T09:16:00.743Z,18.03
2017-10-27T09:18:27.098Z,18.13
2017-10-27T09:20:53.535Z,18.13
2017-10-27T09:23:20.237Z,18.12
2017-10-27T09:25:46.675Z,18.10
2017-10-27T09:28:13.151Z,18.18
2017-10-27T09:30:39.964Z,18.31
2017-10-27T09:33:07.421Z,18.42
2017-10-27T09:35:33.953Z,18.53
2017-10-27T09:38:00.794Z,18.54
2017-10-27T09:40:27.340Z,18.54
2017-10-27T09:42:53.739Z,18.64
2017-10-27T09:45:20.918Z,18.82
2017-10-27T09:47:47.712Z,18.88
2017-10-27T09:50:14.180Z,18.95
2017-10-27T09:52:41.222Z,19.05
2017-10-27T09:55:07.665Z,19.11
2017-10-27T09:57:34.133Z,19.18
2017-10-27T10:00:00.550Z,19.26
2017-10-27T10:02:26.984Z,19.39
2017-10-27T10:04:54.021Z,19.61
2017-10-27T10:07:22.241Z,19.67
2017-10-27T10:09:48.754Z,19.75
2017-10-27T10:12:15.865Z,19.71
2017-10-27T10:14:42.268Z,19.70
2017-10-27T10:17:08.776Z,19.78
2017-10-27T10:19:35.611Z,19.85
2017-10-27T10:22:02.171Z,19.79
2017-10-27T10:24:28.788Z,20.05
2017-10-27T10:26:55.538Z,20.05
2017-10-27T10:29:22.070Z,20.02
2017-10-27T10:31:48.503Z,20.23
2017-10-27T10:34:15.039Z,20.31
2017-10-27T10:36:41.781Z,20.25
2017-10-27T10:39:08.151Z,20.20
2017-10-27T10:41:34.860Z,20.24
2017-10-27T10:44:01.422Z,20.27
2017-10-27T10:46:27.828Z,20.27
2017-10-27T10:48:54.786Z,20.42
2017-10-27T10:51:21.305Z,20.65
2017-10-27T10:53:47.769Z,20.78
2017-10-27T10:56:14.702Z,21.04
2017-10-27T10:58:41.238Z,21.33
2017-10-27T11:01:07.777Z,21.76
2017-10-27T11:03:34.611Z,21.87
2017-10-27T11:06:00.984Z,22.19
2017-10-27T11:08:27.472Z,22.51
2017-10-27T11:10:55.352Z,22.78
2017-10-27T11:13:21.718Z,23.09
2017-10-27T11:15:48.199Z,23.50
2017-10-27T11:18:14.629Z,23.69
2017-10-27T11:20:41.612Z,23.96
2017-10-27T11:23:08.222Z,24.34
2017-10-27T11:25:34.674Z,24.58
2017-10-27T11:28:01.763Z,24.75
2017-10-27T11:30:28.198Z,24.78
2017-10-27T11:32:54.602Z,24.74
2017-10-27T11:35:21.223Z,25.02
2017-10-27T11:37:47.667Z,25.45
2017-10-27T11:40:14.154Z,25.59
2017-10-27T11:42:40.947Z,25.86
2017-10-27T11:45:07.381Z,25.82
2017-10-27T11:47:33.730Z,25.76
2017-10-27T11:50:00.455Z,26.04
2017-10-27T11:52:26.898Z,26.47
2017-10-27T11:54:53.324Z,26.57
2017-10-27T11:57:20.067Z,26.49
2017-10-27T11:59:46.521Z,26.62
2017-10-27T12:02:12.990Z,26.84
2017-10-27T12:04:39.372Z,27.09
2017-10-27T12:07:05.805Z,27.45
2017-10-27T12:09:32.371Z,27.75
2017-10-27T12:11:59.115Z,27.65
2017-10-27T12:14:25.621Z,27.90
2017-10-27T12:16:52.251Z,28.42
2017-10-27T12:19:18.663Z,28.76
2017-10-27T12:21:45.086Z,28.92
2017-10-27T12:24:12.331Z,28.99
2017-10-27T12:26:38.831Z,29.62
2017-10-27T12:29:05.254Z,30.29
2017-10-27T12:31:31.731Z,30.90
2017-10-27T12:33:58.227Z,31.38
2017-10-27T12:36:24.698Z,31.55
2017-10-27T12:38:51.329Z,31.28
2017-10-27T12:41:17.756Z,30.82
2017-10-27T12:43:44.280Z,30.84
2017-10-27T12:46:11.229Z,30.81
2017-10-27T12:48:37.663Z,31.14
2017-10-27T12:51:04.200Z,31.52
2017-10-27T12:53:30.562Z,31.77
2017-10-27T12:55:57.051Z,32.07
2017-10-27T12:58:23.494Z,32.01
2017-10-27T13:00:50.052Z,32.22
2017-10-27T13:03:16.775Z,31.92
2017-10-27T13:05:43.175Z,31.69
2017-10-27T13:08:09.653Z,31.54
2017-10-27T13:10:36.190Z,31.87
2017-10-27T13:13:02.681Z,32.12
2017-10-27T13:15:29.256Z,32.19
2017-10-27T13:17:56.101Z,31.57
2017-10-27T13:20:22.537Z,31.21
2017-10-27T13:22:48.870Z,30.96
2017-10-27T13:25:15.310Z,31.18
2017-10-27T13:27:41.707Z,31.61
2017-10-27T13:30:08.581Z,32.04
2017-10-27T13:32:35.560Z,32.22
2017-10-27T13:35:02.165Z,32.12
2017-10-27T13:37:28.607Z,31.51
2017-10-27T13:39:55.059Z,31.21
2017-10-27T13:42:21.875Z,31.17
2017-10-27T13:44:48.323Z,31.08
2017-10-27T13:47:14.758Z,31.21
2017-10-27T13:49:41.602Z,31.51
2017-10-27T13:52:08.206Z,31.57
2017-10-27T13:54:34.676Z,31.55
2017-10-27T13:57:01.039Z,31.58
2017-10-27T13:59:27.512Z,31.38
2017-10-27T14:01:54.494Z,31.35
2017-10-27T14:04:20.928Z,31.18
2017-10-27T14:06:47.561Z,31.10
2017-10-27T14:09:13.994Z,31.10
2017-10-27T14:11:40.536Z,31.05
2017-10-27T14:14:07.685Z,31.14
2017-10-27T14:16:34.629Z,31.10
2017-10-27T14:19:01.652Z,30.88
2017-10-27T14:21:28.567Z,30.37
2017-10-27T14:23:55.134Z,29.83
2017-10-27T14:26:21.598Z,29.40
2017-10-27T14:28:48.041Z,28.97
2017-10-27T14:31:15.072Z,28.52
2017-10-27T14:33:41.626Z,28.14
2017-10-27T14:36:08.064Z,27.83
2017-10-27T14:38:34.700Z,27.35
2017-10-27T14:41:01.167Z,27.16
2017-10-27T14:43:28.124Z,27.00
2017-10-27T14:45:55.076Z,27.10
2017-10-27T14:48:21.563Z,27.18
2017-10-27T14:50:47.988Z,27.11
2017-10-27T14:53:14.536Z,26.95
2017-10-27T14:55:40.961Z,26.60
2017-10-27T14:58:07.395Z,26.31
2017-10-27T15:00:34.011Z,26.04
2017-10-27T15:03:00.572Z,25.46
2017-10-27T15:05:27.011Z,24.93
2017-10-27T15:07:53.749Z,24.30
2017-10-27T15:10:20.222Z,23.51
2017-10-27T15:12:46.729Z,22.86
2017-10-27T15:15:13.361Z,22.24
2017-10-27T15:17:39.804Z,21.94
2017-10-27T15:20:06.167Z,21.47
2017-10-27T15:22:32.561Z,21.04
2017-10-27T15:24:58.997Z,20.69
2017-10-27T15:27:25.431Z,20.38
2017-10-27T15:29:52.072Z,20.06
2017-10-27T15:32:18.505Z,19.78
2017-10-27T15:34:44.939Z,19.36
2017-10-27T15:37:11.377Z,19.35
2017-10-27T15:39:37.742Z,19.12
2017-10-27T15:42:04.253Z,18.95
2017-10-27T15:44:31.282Z,18.75
2017-10-27T15:46:57.699Z,18.54
2017-10-27T15:49:24.172Z,18.42
2017-10-27T15:51:50.537Z,18.26
2017-10-27T15:54:16.934Z,18.07
2017-10-27T15:56:43.344Z,17.86
2017-10-27T15:59:09.800Z,17.66
2017-10-27T16:01:37.055Z,17.66
2017-10-27T16:04:03.488Z,17.60
2017-10-27T16:06:29.860Z,17.50
2017-10-27T16:08:56.446Z,17.35
2017-10-27T16:11:23.414Z,17.23
2017-10-27T16:13:49.741Z,17.17
2017-10-27T16:16:16.224Z,17.00
2017-10-27T16:18:43.348Z,16.95
2017-10-27T16:21:09.847Z,16.92
2017-10-27T16:23:36.502Z,16.81
2017-10-27T16:26:07.630Z,16.84
2017-10-27T16:28:35.735Z,16.82
2017-10-27T16:31:03.115Z,16.78
2017-10-27T16:33:30.869Z,16.72
2017-10-27T16:36:06.715Z,16.67
2017-10-27T16:38:34.742Z,16.62
2017-10-27T16:41:05.309Z,16.59
2017-10-27T17:02:33.456Z,16.38
2017-10-27T18:23:21.564Z,16.01
2017-10-27T18:28:57.530Z,15.98
2017-10-27T18:34:02.526Z,15.94
2017-10-27T18:41:46.114Z,15.81
2017-10-27T18:44:18.953Z,15.74
2017-10-27T18:46:54.145Z,15.69
2017-10-27T18:52:07.608Z,15.65
2017-10-27T18:57:19.649Z,15.50
2017-10-27T18:59:52.059Z,15.48
2017-10-27T19:04:54.124Z,15.55
2017-10-27T19:07:26.134Z,15.57
2017-10-27T19:12:35.426Z,15.50
2017-10-27T19:17:40.859Z,15.44
2017-10-27T19:20:13.703Z,15.53
2017-10-27T19:25:22.330Z,15.36
2017-10-27T19:27:48.819Z,15.33
2017-10-27T19:30:15.287Z,15.31
2017-10-27T19:32:41.731Z,15.26
2017-10-27T19:35:08.148Z,15.21
2017-10-27T19:37:34.582Z,15.15
2017-10-27T19:40:01.017Z,15.12
2017-10-27T19:42:27.563Z,15.13
2017-10-27T19:44:54.612Z,15.14
2017-10-27T19:47:21.058Z,15.14
2017-10-27T19:49:47.473Z,15.11
2017-10-27T19:52:13.907Z,15.15
2017-10-27T19:54:40.351Z,15.19
2017-10-27T19:57:06.777Z,15.29
2017-10-27T19:59:33.221Z,15.36
2017-10-27T20:02:00.445Z,15.39
2017-10-27T20:04:26.904Z,15.47
2017-10-27T20:06:53.338Z,15.48
2017-10-27T20:09:19.769Z,15.49
2017-10-27T20:11:46.205Z,15.49
2017-10-27T20:14:12.652Z,15.49
2017-10-27T20:16:39.019Z,15.51
2017-10-27T20:19:06.292Z,15.56
2017-10-27T20:21:32.776Z,15.39
2017-10-27T20:23:59.198Z,15.60
2017-10-27T20:26:25.632Z,15.61
2017-10-27T20:28:52.006Z,15.54
2017-10-27T20:31:18.539Z,15.44
2017-10-27T20:33:44.937Z,15.39
2017-10-27T20:36:12.198Z,15.30
2017-10-27T20:38:38.623Z,15.29
2017-10-27T20:41:05.062Z,15.18
2017-10-27T20:43:31.494Z,14.92
2017-10-27T20:45:57.910Z,15.00
2017-10-27T20:48:24.365Z,14.88
2017-10-27T20:50:50.806Z,14.74
2017-10-27T20:53:17.950Z,14.69
2017-10-27T20:55:44.394Z,14.63
2017-10-27T20:58:10.827Z,14.56
2017-10-27T21:00:37.254Z,14.52
2017-10-27T21:03:03.698Z,14.45
2017-10-27T21:05:30.172Z,14.46
2017-10-27T21:07:56.564Z,14.34
2017-10-27T21:10:23.812Z,14.31
2017-10-27T21:12:50.256Z,14.27
2017-10-27T21:15:16.708Z,14.13
2017-10-27T21:17:43.228Z,14.13
2017-10-27T21:20:09.591Z,14.08
2017-10-27T21:22:35.947Z,14.09
2017-10-27T21:25:02.443Z,14.05
2017-10-27T21:27:29.575Z,14.09
2017-10-27T21:29:56.032Z,14.06
2017-10-27T21:32:22.446Z,14.05
2017-10-27T21:34:48.772Z,14.10
2017-10-27T21:37:15.210Z,14.14
2017-10-27T21:39:41.645Z,14.14
2017-10-27T21:42:08.081Z,14.18
2017-10-27T21:44:35.332Z,14.14
2017-10-27T21:47:01.712Z,14.02
2017-10-27T21:49:28.099Z,13.96
2017-10-27T21:51:54.545Z,14.00
2017-10-27T21:54:20.969Z,14.07
2017-10-27T21:56:47.407Z,14.03
2017-10-27T21:59:13.849Z,14.06
2017-10-27T22:01:41.103Z,14.12
2017-10-27T22:04:07.529Z,14.18
2017-10-27T22:06:33.962Z,14.15
2017-10-27T22:09:00.336Z,14.08
2017-10-27T22:11:26.732Z,14.07
2017-10-27T22:13:53.135Z,14.02
2017-10-27T22:16:19.601Z,13.93
2017-10-27T22:18:46.650Z,13.93
2017-10-27T22:21:13.086Z,13.97
2017-10-27T22:23:39.528Z,13.92
2017-10-27T22:26:05.956Z,13.91
2017-10-27T22:28:32.386Z,13.89
2017-10-27T22:30:58.821Z,13.83
2017-10-27T22:33:25.265Z,13.71
2017-10-27T22:35:52.408Z,13.72
2017-10-27T22:38:18.868Z,13.73
2017-10-27T22:40:45.281Z,13.72
2017-10-27T22:43:11.679Z,13.68
2017-10-27T22:45:38.147Z,13.62
2017-10-27T22:48:04.589Z,13.64
2017-10-27T22:50:31.016Z,13.60
2017-10-27T22:52:58.141Z,13.62
2017-10-27T22:55:24.594Z,13.54
2017-10-27T22:57:51.035Z,13.51
2017-10-27T23:00:17.481Z,13.57
2017-10-27T23:02:43.804Z,13.51
2017-10-27T23:05:10.136Z,13.52
2017-10-27T23:07:36.580Z,13.38
2017-10-27T23:10:03.732Z,13.50
2017-10-27T23:12:30.157Z,13.36
2017-10-27T23:14:56.593Z,13.53
2017-10-27T23:17:23.036Z,13.61
2017-10-27T23:19:49.360Z,13.67
2017-10-27T23:22:15.804Z,13.66
2017-10-27T23:24:42.250Z,13.62
2017-10-27T23:27:09.482Z,13.54
2017-10-27T23:29:35.803Z,13.57
2017-10-27T23:32:02.120Z,13.66
2017-10-27T23:34:28.582Z,13.90
2017-10-27T23:36:55.017Z,14.26
2017-10-27T23:39:21.452Z,14.50
2017-10-27T23:41:47.793Z,14.81
2017-10-27T23:44:15.142Z,15.04
2017-10-27T23:46:41.549Z,15.18
2017-10-27T23:49:08.011Z,15.40
2017-10-27T23:51:34.445Z,15.51
2017-10-27T23:54:00.879Z,15.62
2017-10-27T23:56:27.314Z,15.73
2017-10-27T23:58:53.750Z,15.81
